sensor_id;sensor_type;location;lat;lon;timestamp;P1;durP1;ratioP1;P2;durP2;ratioP2
51800;SDS011;37855;53.204;6.568;2023-08-21T00:01:21;9.77;;;2.60;;
51800;SDS011;37855;53.204;6.568;2023-08-21T00:03:47;8.03;;;2.40;;
51800;SDS011;37855;53.204;6.568;2023-08-21T00:06:13;10.13;;;2.60;;
51800;SDS011;37855;53.204;6.568;2023-08-21T00:08:38;8.40;;;2.43;;
51800;SDS011;37855;53.204;6.568;2023-08-21T00:11:04;7.83;;;2.43;;
51800;SDS011;37855;53.204;6.568;2023-08-21T00:13:30;6.50;;;2.40;;
51800;SDS011;37855;53.204;6.568;2023-08-21T00:15:55;7.70;;;2.40;;
51800;SDS011;37855;53.204;6.568;2023-08-21T00:18:21;10.00;;;2.70;;
51800;SDS011;37855;53.204;6.568;2023-08-21T00:20:47;6.35;;;2.60;;
51800;SDS011;37855;53.204;6.568;2023-08-21T00:23:13;8.17;;;2.80;;
51800;SDS011;37855;53.204;6.568;2023-08-21T00:25:38;10.65;;;2.90;;
51800;SDS011;37855;53.204;6.568;2023-08-21T00:28:04;7.33;;;2.80;;
51800;SDS011;37855;53.204;6.568;2023-08-21T00:30:30;6.90;;;2.45;;
51800;SDS011;37855;53.204;6.568;2023-08-21T00:32:56;9.30;;;2.72;;
51800;SDS011;37855;53.204;6.568;2023-08-21T00:35:22;7.73;;;2.30;;
51800;SDS011;37855;53.204;6.568;2023-08-21T00:37:47;9.30;;;2.42;;
51800;SDS011;37855;53.204;6.568;2023-08-21T00:40:13;7.47;;;2.77;;
51800;SDS011;37855;53.204;6.568;2023-08-21T00:42:40;7.95;;;2.35;;
51800;SDS011;37855;53.204;6.568;2023-08-21T00:45:06;8.20;;;2.63;;
51800;SDS011;37855;53.204;6.568;2023-08-21T00:47:36;11.03;;;2.97;;
51800;SDS011;37855;53.204;6.568;2023-08-21T00:50:02;8.73;;;3.10;;
51800;SDS011;37855;53.204;6.568;2023-08-21T00:52:30;7.50;;;2.53;;
51800;SDS011;37855;53.204;6.568;2023-08-21T00:54:56;8.30;;;2.40;;
51800;SDS011;37855;53.204;6.568;2023-08-21T00:57:24;6.57;;;2.55;;
51800;SDS011;37855;53.204;6.568;2023-08-21T00:59:54;8.95;;;2.38;;
51800;SDS011;37855;53.204;6.568;2023-08-21T01:02:19;8.35;;;2.40;;
51800;SDS011;37855;53.204;6.568;2023-08-21T01:04:45;7.93;;;2.50;;
51800;SDS011;37855;53.204;6.568;2023-08-21T01:07:11;7.57;;;2.80;;
51800;SDS011;37855;53.204;6.568;2023-08-21T01:12:30;7.63;;;2.40;;
51800;SDS011;37855;53.204;6.568;2023-08-21T01:15:03;8.68;;;2.70;;
51800;SDS011;37855;53.204;6.568;2023-08-21T01:17:31;8.48;;;2.22;;
51800;SDS011;37855;53.204;6.568;2023-08-21T01:19:59;9.25;;;2.50;;
51800;SDS011;37855;53.204;6.568;2023-08-21T01:22:26;9.80;;;2.80;;
51800;SDS011;37855;53.204;6.568;2023-08-21T01:24:52;8.45;;;2.60;;
51800;SDS011;37855;53.204;6.568;2023-08-21T01:27:21;9.30;;;2.83;;
51800;SDS011;37855;53.204;6.568;2023-08-21T01:29:47;7.47;;;2.65;;
51800;SDS011;37855;53.204;6.568;2023-08-21T01:35:03;9.05;;;2.70;;
51800;SDS011;37855;53.204;6.568;2023-08-21T01:37:30;11.25;;;2.95;;
51800;SDS011;37855;53.204;6.568;2023-08-21T01:39:59;9.73;;;2.80;;
51800;SDS011;37855;53.204;6.568;2023-08-21T01:42:25;8.25;;;3.30;;
51800;SDS011;37855;53.204;6.568;2023-08-21T01:44:50;10.10;;;3.30;;
51800;SDS011;37855;53.204;6.568;2023-08-21T01:47:16;9.37;;;3.03;;
51800;SDS011;37855;53.204;6.568;2023-08-21T01:49:42;9.05;;;3.15;;
51800;SDS011;37855;53.204;6.568;2023-08-21T01:52:07;10.03;;;2.70;;
51800;SDS011;37855;53.204;6.568;2023-08-21T01:54:33;11.23;;;3.40;;
51800;SDS011;37855;53.204;6.568;2023-08-21T01:57:00;9.95;;;3.30;;
51800;SDS011;37855;53.204;6.568;2023-08-21T01:59:26;8.57;;;2.70;;
51800;SDS011;37855;53.204;6.568;2023-08-21T02:01:52;7.55;;;2.65;;
51800;SDS011;37855;53.204;6.568;2023-08-21T02:04:18;10.37;;;2.93;;
51800;SDS011;37855;53.204;6.568;2023-08-21T02:06:44;8.25;;;2.70;;
51800;SDS011;37855;53.204;6.568;2023-08-21T02:09:10;7.60;;;2.93;;
51800;SDS011;37855;53.204;6.568;2023-08-21T02:11:36;9.40;;;3.15;;
51800;SDS011;37855;53.204;6.568;2023-08-21T02:14:01;8.80;;;3.00;;
51800;SDS011;37855;53.204;6.568;2023-08-21T02:16:28;8.50;;;2.87;;
51800;SDS011;37855;53.204;6.568;2023-08-21T02:18:53;8.82;;;2.60;;
51800;SDS011;37855;53.204;6.568;2023-08-21T02:21:20;7.35;;;2.58;;
51800;SDS011;37855;53.204;6.568;2023-08-21T02:23:46;10.43;;;3.05;;
51800;SDS011;37855;53.204;6.568;2023-08-21T02:26:11;6.33;;;2.80;;
51800;SDS011;37855;53.204;6.568;2023-08-21T02:28:37;7.45;;;2.80;;
51800;SDS011;37855;53.204;6.568;2023-08-21T02:31:03;8.87;;;3.00;;
51800;SDS011;37855;53.204;6.568;2023-08-21T02:33:30;9.18;;;2.70;;
51800;SDS011;37855;53.204;6.568;2023-08-21T02:35:56;8.15;;;2.90;;
51800;SDS011;37855;53.204;6.568;2023-08-21T02:38:22;8.23;;;3.00;;
51800;SDS011;37855;53.204;6.568;2023-08-21T02:40:47;9.60;;;3.17;;
51800;SDS011;37855;53.204;6.568;2023-08-21T02:43:14;7.77;;;2.97;;
51800;SDS011;37855;53.204;6.568;2023-08-21T02:45:41;7.32;;;2.70;;
51800;SDS011;37855;53.204;6.568;2023-08-21T02:48:07;8.80;;;3.45;;
51800;SDS011;37855;53.204;6.568;2023-08-21T02:50:33;10.70;;;3.20;;
51800;SDS011;37855;53.204;6.568;2023-08-21T02:52:59;10.60;;;3.10;;
51800;SDS011;37855;53.204;6.568;2023-08-21T02:55:24;8.67;;;3.00;;
51800;SDS011;37855;53.204;6.568;2023-08-21T02:57:50;8.65;;;2.70;;
51800;SDS011;37855;53.204;6.568;2023-08-21T03:00:16;7.77;;;2.67;;
51800;SDS011;37855;53.204;6.568;2023-08-21T03:02:41;9.30;;;2.90;;
51800;SDS011;37855;53.204;6.568;2023-08-21T03:05:07;8.18;;;2.67;;
51800;SDS011;37855;53.204;6.568;2023-08-21T03:07:34;6.93;;;2.60;;
51800;SDS011;37855;53.204;6.568;2023-08-21T03:10:00;7.82;;;2.63;;
51800;SDS011;37855;53.204;6.568;2023-08-21T03:12:27;7.28;;;3.05;;
51800;SDS011;37855;53.204;6.568;2023-08-21T03:14:52;7.33;;;2.83;;
51800;SDS011;37855;53.204;6.568;2023-08-21T03:17:18;8.93;;;3.10;;
51800;SDS011;37855;53.204;6.568;2023-08-21T03:19:44;7.23;;;2.90;;
51800;SDS011;37855;53.204;6.568;2023-08-21T03:22:10;9.18;;;2.95;;
51800;SDS011;37855;53.204;6.568;2023-08-21T03:24:35;10.37;;;2.87;;
51800;SDS011;37855;53.204;6.568;2023-08-21T03:27:01;7.10;;;3.00;;
51800;SDS011;37855;53.204;6.568;2023-08-21T03:29:27;9.85;;;2.80;;
51800;SDS011;37855;53.204;6.568;2023-08-21T03:31:53;7.90;;;2.43;;
51800;SDS011;37855;53.204;6.568;2023-08-21T03:34:22;8.07;;;2.97;;
51800;SDS011;37855;53.204;6.568;2023-08-21T03:36:48;6.25;;;2.50;;
51800;SDS011;37855;53.204;6.568;2023-08-21T03:39:16;7.37;;;2.60;;
51800;SDS011;37855;53.204;6.568;2023-08-21T03:41:42;9.18;;;2.65;;
51800;SDS011;37855;53.204;6.568;2023-08-21T03:44:08;7.55;;;2.45;;
51800;SDS011;37855;53.204;6.568;2023-08-21T03:46:34;5.33;;;2.27;;
51800;SDS011;37855;53.204;6.568;2023-08-21T03:48:59;9.45;;;2.78;;
51800;SDS011;37855;53.204;6.568;2023-08-21T03:51:25;6.17;;;2.50;;
51800;SDS011;37855;53.204;6.568;2023-08-21T03:53:51;6.93;;;2.63;;
51800;SDS011;37855;53.204;6.568;2023-08-21T03:56:16;8.23;;;2.38;;
51800;SDS011;37855;53.204;6.568;2023-08-21T03:58:43;8.85;;;2.80;;
51800;SDS011;37855;53.204;6.568;2023-08-21T04:01:09;7.43;;;2.77;;
51800;SDS011;37855;53.204;6.568;2023-08-21T04:03:35;6.97;;;2.88;;
51800;SDS011;37855;53.204;6.568;2023-08-21T04:06:01;7.95;;;3.03;;
51800;SDS011;37855;53.204;6.568;2023-08-21T04:08:27;10.83;;;2.90;;
51800;SDS011;37855;53.204;6.568;2023-08-21T04:10:52;9.20;;;3.05;;
51800;SDS011;37855;53.204;6.568;2023-08-21T04:13:18;9.07;;;3.10;;
51800;SDS011;37855;53.204;6.568;2023-08-21T04:15:45;9.77;;;2.90;;
51800;SDS011;37855;53.204;6.568;2023-08-21T04:18:11;10.05;;;2.97;;
51800;SDS011;37855;53.204;6.568;2023-08-21T04:20:38;8.50;;;2.88;;
51800;SDS011;37855;53.204;6.568;2023-08-21T04:23:03;7.20;;;3.00;;
51800;SDS011;37855;53.204;6.568;2023-08-21T04:25:29;8.10;;;3.35;;
51800;SDS011;37855;53.204;6.568;2023-08-21T04:27:55;6.27;;;2.80;;
51800;SDS011;37855;53.204;6.568;2023-08-21T04:30:21;7.90;;;3.25;;
51800;SDS011;37855;53.204;6.568;2023-08-21T04:32:47;6.90;;;3.00;;
51800;SDS011;37855;53.204;6.568;2023-08-21T04:35:13;8.27;;;3.00;;
51800;SDS011;37855;53.204;6.568;2023-08-21T04:37:42;9.38;;;3.25;;
51800;SDS011;37855;53.204;6.568;2023-08-21T04:40:11;8.57;;;3.42;;
51800;SDS011;37855;53.204;6.568;2023-08-21T04:42:45;8.50;;;3.42;;
51800;SDS011;37855;53.204;6.568;2023-08-21T04:45:11;9.77;;;3.23;;
51800;SDS011;37855;53.204;6.568;2023-08-21T04:47:37;7.30;;;3.10;;
51800;SDS011;37855;53.204;6.568;2023-08-21T04:50:03;8.43;;;3.03;;
51800;SDS011;37855;53.204;6.568;2023-08-21T04:52:29;9.25;;;3.40;;
51800;SDS011;37855;53.204;6.568;2023-08-21T04:54:55;8.77;;;3.33;;
51800;SDS011;37855;53.204;6.568;2023-08-21T04:57:20;7.82;;;3.30;;
51800;SDS011;37855;53.204;6.568;2023-08-21T04:59:46;8.37;;;3.40;;
51800;SDS011;37855;53.204;6.568;2023-08-21T05:02:12;9.20;;;3.45;;
51800;SDS011;37855;53.204;6.568;2023-08-21T05:04:38;10.18;;;3.72;;
51800;SDS011;37855;53.204;6.568;2023-08-21T05:07:04;7.90;;;3.43;;
51800;SDS011;37855;53.204;6.568;2023-08-21T05:09:30;9.00;;;3.30;;
51800;SDS011;37855;53.204;6.568;2023-08-21T05:11:57;9.60;;;3.75;;
51800;SDS011;37855;53.204;6.568;2023-08-21T05:14:22;9.93;;;3.40;;
51800;SDS011;37855;53.204;6.568;2023-08-21T05:16:48;8.68;;;3.50;;
51800;SDS011;37855;53.204;6.568;2023-08-21T05:19:15;9.83;;;3.53;;
51800;SDS011;37855;53.204;6.568;2023-08-21T05:21:41;12.82;;;3.30;;
51800;SDS011;37855;53.204;6.568;2023-08-21T05:24:07;9.55;;;3.70;;
51800;SDS011;37855;53.204;6.568;2023-08-21T05:26:35;12.40;;;3.90;;
51800;SDS011;37855;53.204;6.568;2023-08-21T05:29:01;12.17;;;3.57;;
51800;SDS011;37855;53.204;6.568;2023-08-21T05:31:27;9.95;;;3.72;;
51800;SDS011;37855;53.204;6.568;2023-08-21T05:33:52;11.35;;;4.00;;
51800;SDS011;37855;53.204;6.568;2023-08-21T05:36:18;11.63;;;3.60;;
51800;SDS011;37855;53.204;6.568;2023-08-21T05:38:44;11.70;;;3.70;;
51800;SDS011;37855;53.204;6.568;2023-08-21T05:41:09;11.30;;;3.50;;
51800;SDS011;37855;53.204;6.568;2023-08-21T05:43:35;15.55;;;3.70;;
51800;SDS011;37855;53.204;6.568;2023-08-21T05:46:01;11.83;;;3.50;;
51800;SDS011;37855;53.204;6.568;2023-08-21T05:48:27;12.07;;;3.30;;
51800;SDS011;37855;53.204;6.568;2023-08-21T05:50:53;11.13;;;3.07;;
51800;SDS011;37855;53.204;6.568;2023-08-21T05:53:19;9.95;;;3.47;;
51800;SDS011;37855;53.204;6.568;2023-08-21T05:55:45;15.33;;;3.73;;
51800;SDS011;37855;53.204;6.568;2023-08-21T05:58:11;13.18;;;3.92;;
51800;SDS011;37855;53.204;6.568;2023-08-21T06:00:38;10.33;;;3.00;;
51800;SDS011;37855;53.204;6.568;2023-08-21T06:03:04;9.02;;;2.92;;
51800;SDS011;37855;53.204;6.568;2023-08-21T06:05:30;7.70;;;2.75;;
51800;SDS011;37855;53.204;6.568;2023-08-21T06:07:56;8.98;;;2.70;;
51800;SDS011;37855;53.204;6.568;2023-08-21T06:10:21;9.37;;;2.60;;
51800;SDS011;37855;53.204;6.568;2023-08-21T06:12:47;10.70;;;2.50;;
51800;SDS011;37855;53.204;6.568;2023-08-21T06:15:13;8.53;;;2.60;;
51800;SDS011;37855;53.204;6.568;2023-08-21T06:17:39;10.48;;;2.63;;
51800;SDS011;37855;53.204;6.568;2023-08-21T06:20:07;9.50;;;2.70;;
51800;SDS011;37855;53.204;6.568;2023-08-21T06:22:36;9.60;;;2.30;;
51800;SDS011;37855;53.204;6.568;2023-08-21T06:25:02;7.55;;;1.90;;
51800;SDS011;37855;53.204;6.568;2023-08-21T06:27:29;7.63;;;1.90;;
51800;SDS011;37855;53.204;6.568;2023-08-21T06:29:55;10.07;;;1.75;;
51800;SDS011;37855;53.204;6.568;2023-08-21T06:32:24;7.95;;;1.88;;
51800;SDS011;37855;53.204;6.568;2023-08-21T06:34:50;8.63;;;2.10;;
51800;SDS011;37855;53.204;6.568;2023-08-21T06:37:15;8.67;;;1.60;;
51800;SDS011;37855;53.204;6.568;2023-08-21T06:39:41;6.25;;;1.85;;
51800;SDS011;37855;53.204;6.568;2023-08-21T06:42:07;7.83;;;2.07;;
51800;SDS011;37855;53.204;6.568;2023-08-21T06:44:32;5.93;;;1.50;;
51800;SDS011;37855;53.204;6.568;2023-08-21T06:46:58;7.90;;;1.80;;
51800;SDS011;37855;53.204;6.568;2023-08-21T06:49:24;9.02;;;1.55;;
51800;SDS011;37855;53.204;6.568;2023-08-21T06:51:49;8.93;;;1.90;;
51800;SDS011;37855;53.204;6.568;2023-08-21T06:54:16;8.77;;;2.05;;
51800;SDS011;37855;53.204;6.568;2023-08-21T06:56:43;6.97;;;1.60;;
51800;SDS011;37855;53.204;6.568;2023-08-21T06:59:09;9.33;;;1.70;;
51800;SDS011;37855;53.204;6.568;2023-08-21T07:01:35;9.43;;;1.90;;
51800;SDS011;37855;53.204;6.568;2023-08-21T07:04:01;10.27;;;1.70;;
51800;SDS011;37855;53.204;6.568;2023-08-21T07:06:30;7.70;;;1.50;;
51800;SDS011;37855;53.204;6.568;2023-08-21T07:08:56;12.50;;;1.90;;
51800;SDS011;37855;53.204;6.568;2023-08-21T07:11:22;8.45;;;1.75;;
51800;SDS011;37855;53.204;6.568;2023-08-21T07:13:48;8.57;;;1.40;;
51800;SDS011;37855;53.204;6.568;2023-08-21T07:16:13;8.38;;;1.50;;
51800;SDS011;37855;53.204;6.568;2023-08-21T07:18:39;9.50;;;1.67;;
51800;SDS011;37855;53.204;6.568;2023-08-21T07:21:05;11.27;;;1.63;;
51800;SDS011;37855;53.204;6.568;2023-08-21T07:23:31;7.95;;;1.90;;
51800;SDS011;37855;53.204;6.568;2023-08-21T07:25:58;9.48;;;1.75;;
51800;SDS011;37855;53.204;6.568;2023-08-21T07:28:24;8.70;;;1.60;;
51800;SDS011;37855;53.204;6.568;2023-08-21T07:30:56;8.80;;;1.80;;
51800;SDS011;37855;53.204;6.568;2023-08-21T07:33:23;9.27;;;1.77;;
51800;SDS011;37855;53.204;6.568;2023-08-21T07:36:04;4.18;;;1.60;;
51800;SDS011;37855;53.204;6.568;2023-08-21T07:38:31;4.23;;;1.50;;
51800;SDS011;37855;53.204;6.568;2023-08-21T07:41:03;8.25;;;1.50;;
51800;SDS011;37855;53.204;6.568;2023-08-21T07:43:35;5.05;;;1.38;;
51800;SDS011;37855;53.204;6.568;2023-08-21T07:46:05;5.15;;;1.42;;
51800;SDS011;37855;53.204;6.568;2023-08-21T07:48:31;6.40;;;1.60;;
51800;SDS011;37855;53.204;6.568;2023-08-21T07:50:57;6.38;;;1.50;;
51800;SDS011;37855;53.204;6.568;2023-08-21T07:53:24;5.70;;;1.52;;
51800;SDS011;37855;53.204;6.568;2023-08-21T07:55:50;6.90;;;1.92;;
51800;SDS011;37855;53.204;6.568;2023-08-21T07:58:17;7.30;;;1.80;;
51800;SDS011;37855;53.204;6.568;2023-08-21T08:00:43;6.05;;;1.48;;
51800;SDS011;37855;53.204;6.568;2023-08-21T08:03:09;5.65;;;1.48;;
51800;SDS011;37855;53.204;6.568;2023-08-21T08:05:36;5.07;;;1.40;;
51800;SDS011;37855;53.204;6.568;2023-08-21T08:08:02;6.20;;;1.60;;
51800;SDS011;37855;53.204;6.568;2023-08-21T08:10:28;5.90;;;1.58;;
51800;SDS011;37855;53.204;6.568;2023-08-21T08:12:54;6.15;;;1.90;;
51800;SDS011;37855;53.204;6.568;2023-08-21T08:15:20;5.27;;;1.53;;
51800;SDS011;37855;53.204;6.568;2023-08-21T08:17:46;5.43;;;1.48;;
51800;SDS011;37855;53.204;6.568;2023-08-21T08:20:12;9.77;;;1.67;;
51800;SDS011;37855;53.204;6.568;2023-08-21T08:22:39;7.17;;;1.80;;
51800;SDS011;37855;53.204;6.568;2023-08-21T08:25:04;8.38;;;1.73;;
51800;SDS011;37855;53.204;6.568;2023-08-21T08:27:31;7.78;;;1.50;;
51800;SDS011;37855;53.204;6.568;2023-08-21T08:29:57;6.93;;;1.75;;
51800;SDS011;37855;53.204;6.568;2023-08-21T08:32:24;6.68;;;1.58;;
51800;SDS011;37855;53.204;6.568;2023-08-21T08:34:54;9.37;;;1.60;;
51800;SDS011;37855;53.204;6.568;2023-08-21T08:37:20;5.35;;;1.60;;
51800;SDS011;37855;53.204;6.568;2023-08-21T08:39:46;6.38;;;1.75;;
51800;SDS011;37855;53.204;6.568;2023-08-21T08:42:13;9.90;;;1.60;;
51800;SDS011;37855;53.204;6.568;2023-08-21T08:44:39;11.73;;;1.80;;
51800;SDS011;37855;53.204;6.568;2023-08-21T08:47:10;7.03;;;1.58;;
51800;SDS011;37855;53.204;6.568;2023-08-21T08:49:39;8.32;;;1.70;;
51800;SDS011;37855;53.204;6.568;2023-08-21T08:52:05;7.43;;;1.70;;
51800;SDS011;37855;53.204;6.568;2023-08-21T08:54:32;6.70;;;1.35;;
51800;SDS011;37855;53.204;6.568;2023-08-21T08:57:00;7.83;;;2.10;;
51800;SDS011;37855;53.204;6.568;2023-08-21T08:59:29;6.50;;;1.60;;
51800;SDS011;37855;53.204;6.568;2023-08-21T09:01:56;8.25;;;1.70;;
51800;SDS011;37855;53.204;6.568;2023-08-21T09:04:21;5.15;;;1.50;;
51800;SDS011;37855;53.204;6.568;2023-08-21T09:06:47;4.90;;;1.47;;
51800;SDS011;37855;53.204;6.568;2023-08-21T09:09:13;6.70;;;1.20;;
51800;SDS011;37855;53.204;6.568;2023-08-21T09:11:46;8.17;;;1.50;;
51800;SDS011;37855;53.204;6.568;2023-08-21T09:14:12;8.57;;;1.58;;
51800;SDS011;37855;53.204;6.568;2023-08-21T09:16:56;8.27;;;1.60;;
51800;SDS011;37855;53.204;6.568;2023-08-21T09:19:25;7.90;;;1.60;;
51800;SDS011;37855;53.204;6.568;2023-08-21T09:21:51;8.93;;;1.65;;
51800;SDS011;37855;53.204;6.568;2023-08-21T09:24:16;7.80;;;1.50;;
51800;SDS011;37855;53.204;6.568;2023-08-21T09:26:42;8.88;;;1.80;;
51800;SDS011;37855;53.204;6.568;2023-08-21T09:29:08;6.30;;;1.60;;
51800;SDS011;37855;53.204;6.568;2023-08-21T09:31:34;8.05;;;1.40;;
51800;SDS011;37855;53.204;6.568;2023-08-21T09:34:02;9.27;;;1.58;;
51800;SDS011;37855;53.204;6.568;2023-08-21T09:36:32;9.27;;;1.60;;
51800;SDS011;37855;53.204;6.568;2023-08-21T09:38:59;6.55;;;1.30;;
51800;SDS011;37855;53.204;6.568;2023-08-21T09:41:25;6.72;;;1.60;;
51800;SDS011;37855;53.204;6.568;2023-08-21T09:43:51;9.65;;;1.50;;
51800;SDS011;37855;53.204;6.568;2023-08-21T09:46:21;6.20;;;1.50;;
51800;SDS011;37855;53.204;6.568;2023-08-21T09:48:50;10.03;;;1.63;;
51800;SDS011;37855;53.204;6.568;2023-08-21T09:51:17;9.40;;;1.50;;
51800;SDS011;37855;53.204;6.568;2023-08-21T09:53:43;7.53;;;1.65;;
51800;SDS011;37855;53.204;6.568;2023-08-21T09:56:09;7.93;;;1.60;;
51800;SDS011;37855;53.204;6.568;2023-08-21T09:58:36;5.83;;;1.40;;
51800;SDS011;37855;53.204;6.568;2023-08-21T10:01:04;6.72;;;1.25;;
51800;SDS011;37855;53.204;6.568;2023-08-21T10:03:39;4.65;;;1.60;;
51800;SDS011;37855;53.204;6.568;2023-08-21T10:06:08;6.75;;;1.40;;
51800;SDS011;37855;53.204;6.568;2023-08-21T10:08:37;7.95;;;1.45;;
51800;SDS011;37855;53.204;6.568;2023-08-21T10:11:07;7.53;;;1.57;;
51800;SDS011;37855;53.204;6.568;2023-08-21T10:13:34;12.40;;;1.80;;
51800;SDS011;37855;53.204;6.568;2023-08-21T10:16:02;16.38;;;1.80;;
51800;SDS011;37855;53.204;6.568;2023-08-21T10:18:33;8.45;;;1.60;;
51800;SDS011;37855;53.204;6.568;2023-08-21T10:21:10;12.90;;;1.55;;
51800;SDS011;37855;53.204;6.568;2023-08-21T10:23:50;7.83;;;1.60;;
51800;SDS011;37855;53.204;6.568;2023-08-21T10:26:20;8.77;;;1.83;;
51800;SDS011;37855;53.204;6.568;2023-08-21T10:28:50;7.65;;;1.52;;
51800;SDS011;37855;53.204;6.568;2023-08-21T10:31:30;7.25;;;1.75;;
51800;SDS011;37855;53.204;6.568;2023-08-21T10:33:59;8.65;;;1.60;;
51800;SDS011;37855;53.204;6.568;2023-08-21T10:39:29;5.72;;;1.40;;
51800;SDS011;37855;53.204;6.568;2023-08-21T10:42:09;6.43;;;1.30;;
51800;SDS011;37855;53.204;6.568;2023-08-21T10:49:49;7.10;;;1.40;;
51800;SDS011;37855;53.204;6.568;2023-08-21T10:52:23;5.30;;;1.45;;
51800;SDS011;37855;53.204;6.568;2023-08-21T10:54:51;9.00;;;2.13;;
51800;SDS011;37855;53.204;6.568;2023-08-21T10:57:18;4.93;;;1.50;;
51800;SDS011;37855;53.204;6.568;2023-08-21T10:59:54;7.75;;;1.50;;
51800;SDS011;37855;53.204;6.568;2023-08-21T11:02:24;5.87;;;1.40;;
51800;SDS011;37855;53.204;6.568;2023-08-21T11:04:52;5.65;;;1.35;;
51800;SDS011;37855;53.204;6.568;2023-08-21T11:07:18;13.10;;;1.98;;
51800;SDS011;37855;53.204;6.568;2023-08-21T11:09:44;9.73;;;1.63;;
51800;SDS011;37855;53.204;6.568;2023-08-21T11:12:14;7.18;;;1.73;;
51800;SDS011;37855;53.204;6.568;2023-08-21T11:14:42;6.07;;;1.30;;
51800;SDS011;37855;53.204;6.568;2023-08-21T11:17:09;5.35;;;1.70;;
51800;SDS011;37855;53.204;6.568;2023-08-21T11:19:35;5.35;;;1.30;;
51800;SDS011;37855;53.204;6.568;2023-08-21T11:22:02;5.80;;;1.30;;
51800;SDS011;37855;53.204;6.568;2023-08-21T11:24:43;7.93;;;1.70;;
51800;SDS011;37855;53.204;6.568;2023-08-21T11:27:11;5.87;;;1.70;;
51800;SDS011;37855;53.204;6.568;2023-08-21T11:29:45;9.20;;;1.75;;
51800;SDS011;37855;53.204;6.568;2023-08-21T11:32:13;16.48;;;1.77;;
51800;SDS011;37855;53.204;6.568;2023-08-21T11:34:40;7.57;;;1.80;;
51800;SDS011;37855;53.204;6.568;2023-08-21T11:37:07;8.98;;;1.80;;
51800;SDS011;37855;53.204;6.568;2023-08-21T11:39:41;15.53;;;1.63;;
51800;SDS011;37855;53.204;6.568;2023-08-21T11:42:09;19.20;;;2.03;;
51800;SDS011;37855;53.204;6.568;2023-08-21T11:44:43;15.82;;;2.05;;
51800;SDS011;37855;53.204;6.568;2023-08-21T11:47:10;13.68;;;2.10;;
51800;SDS011;37855;53.204;6.568;2023-08-21T11:49:36;12.30;;;1.55;;
51800;SDS011;37855;53.204;6.568;2023-08-21T11:52:04;9.43;;;2.03;;
51800;SDS011;37855;53.204;6.568;2023-08-21T11:54:33;6.07;;;1.85;;
51800;SDS011;37855;53.204;6.568;2023-08-21T11:57:03;7.78;;;1.85;;
51800;SDS011;37855;53.204;6.568;2023-08-21T11:59:30;7.10;;;1.70;;
51800;SDS011;37855;53.204;6.568;2023-08-21T12:01:55;8.33;;;1.70;;
51800;SDS011;37855;53.204;6.568;2023-08-21T12:04:21;5.97;;;1.50;;
51800;SDS011;37855;53.204;6.568;2023-08-21T12:06:47;6.60;;;1.73;;
51800;SDS011;37855;53.204;6.568;2023-08-21T12:09:12;9.87;;;1.50;;
51800;SDS011;37855;53.204;6.568;2023-08-21T12:11:38;13.07;;;2.08;;
51800;SDS011;37855;53.204;6.568;2023-08-21T12:14:04;7.60;;;1.87;;
51800;SDS011;37855;53.204;6.568;2023-08-21T12:16:30;6.45;;;1.70;;
51800;SDS011;37855;53.204;6.568;2023-08-21T12:18:56;5.85;;;1.63;;
51800;SDS011;37855;53.204;6.568;2023-08-21T12:21:23;6.63;;;1.80;;
51800;SDS011;37855;53.204;6.568;2023-08-21T12:23:49;11.10;;;1.97;;
51800;SDS011;37855;53.204;6.568;2023-08-21T12:26:15;7.30;;;1.75;;
51800;SDS011;37855;53.204;6.568;2023-08-21T12:28:46;8.10;;;1.90;;
51800;SDS011;37855;53.204;6.568;2023-08-21T12:31:12;9.03;;;1.90;;
51800;SDS011;37855;53.204;6.568;2023-08-21T12:33:38;6.20;;;1.60;;
51800;SDS011;37855;53.204;6.568;2023-08-21T12:36:03;7.38;;;1.75;;
51800;SDS011;37855;53.204;6.568;2023-08-21T12:38:29;15.20;;;2.47;;
51800;SDS011;37855;53.204;6.568;2023-08-21T12:40:55;7.75;;;2.03;;
51800;SDS011;37855;53.204;6.568;2023-08-21T12:43:20;9.93;;;2.07;;
51800;SDS011;37855;53.204;6.568;2023-08-21T12:45:46;7.82;;;1.80;;
51800;SDS011;37855;53.204;6.568;2023-08-21T12:48:12;7.37;;;2.03;;
51800;SDS011;37855;53.204;6.568;2023-08-21T12:50:38;6.38;;;1.80;;
51800;SDS011;37855;53.204;6.568;2023-08-21T12:53:04;5.93;;;1.42;;
51800;SDS011;37855;53.204;6.568;2023-08-21T12:55:30;14.80;;;2.53;;
51800;SDS011;37855;53.204;6.568;2023-08-21T12:57:56;8.10;;;1.90;;
51800;SDS011;37855;53.204;6.568;2023-08-21T13:00:23;7.32;;;1.98;;
51800;SDS011;37855;53.204;6.568;2023-08-21T13:02:49;7.17;;;1.77;;
51800;SDS011;37855;53.204;6.568;2023-08-21T13:05:14;8.52;;;1.80;;
51800;SDS011;37855;53.204;6.568;2023-08-21T13:07:41;7.87;;;1.90;;
51800;SDS011;37855;53.204;6.568;2023-08-21T13:10:07;14.10;;;2.55;;
51800;SDS011;37855;53.204;6.568;2023-08-21T13:12:33;11.25;;;2.15;;
51800;SDS011;37855;53.204;6.568;2023-08-21T13:14:59;10.20;;;1.63;;
51800;SDS011;37855;53.204;6.568;2023-08-21T13:17:26;16.98;;;2.28;;
51800;SDS011;37855;53.204;6.568;2023-08-21T13:19:52;8.57;;;1.90;;
51800;SDS011;37855;53.204;6.568;2023-08-21T13:22:17;9.52;;;1.75;;
51800;SDS011;37855;53.204;6.568;2023-08-21T13:24:43;15.27;;;2.10;;
51800;SDS011;37855;53.204;6.568;2023-08-21T13:27:09;6.18;;;1.65;;
51800;SDS011;37855;53.204;6.568;2023-08-21T13:29:35;9.07;;;2.03;;
51800;SDS011;37855;53.204;6.568;2023-08-21T13:32:03;8.50;;;1.83;;
51800;SDS011;37855;53.204;6.568;2023-08-21T13:34:28;7.47;;;1.95;;
51800;SDS011;37855;53.204;6.568;2023-08-21T13:36:54;9.20;;;1.73;;
51800;SDS011;37855;53.204;6.568;2023-08-21T13:39:20;15.27;;;1.52;;
51800;SDS011;37855;53.204;6.568;2023-08-21T13:41:47;4.80;;;1.30;;
51800;SDS011;37855;53.204;6.568;2023-08-21T13:44:15;7.30;;;1.40;;
51800;SDS011;37855;53.204;6.568;2023-08-21T13:46:41;8.03;;;1.67;;
51800;SDS011;37855;53.204;6.568;2023-08-21T13:49:06;5.90;;;1.13;;
51800;SDS011;37855;53.204;6.568;2023-08-21T13:51:32;7.97;;;1.40;;
51800;SDS011;37855;53.204;6.568;2023-08-21T13:53:58;4.93;;;1.40;;
51800;SDS011;37855;53.204;6.568;2023-08-21T13:56:24;13.60;;;1.87;;
51800;SDS011;37855;53.204;6.568;2023-08-21T13:58:50;9.57;;;2.00;;
51800;SDS011;37855;53.204;6.568;2023-08-21T14:01:15;5.80;;;1.40;;
51800;SDS011;37855;53.204;6.568;2023-08-21T14:03:41;5.88;;;1.30;;
51800;SDS011;37855;53.204;6.568;2023-08-21T14:06:07;3.95;;;1.17;;
51800;SDS011;37855;53.204;6.568;2023-08-21T14:08:36;7.03;;;1.20;;
51800;SDS011;37855;53.204;6.568;2023-08-21T14:11:02;7.03;;;1.10;;
51800;SDS011;37855;53.204;6.568;2023-08-21T14:13:28;7.82;;;1.48;;
51800;SDS011;37855;53.204;6.568;2023-08-21T14:15:54;5.40;;;1.30;;
51800;SDS011;37855;53.204;6.568;2023-08-21T14:18:19;4.78;;;1.27;;
51800;SDS011;37855;53.204;6.568;2023-08-21T14:20:45;4.90;;;1.20;;
51800;SDS011;37855;53.204;6.568;2023-08-21T14:23:11;4.18;;;1.10;;
51800;SDS011;37855;53.204;6.568;2023-08-21T14:25:37;9.43;;;1.30;;
51800;SDS011;37855;53.204;6.568;2023-08-21T14:28:03;5.90;;;1.33;;
51800;SDS011;37855;53.204;6.568;2023-08-21T14:30:29;8.90;;;1.50;;
51800;SDS011;37855;53.204;6.568;2023-08-21T14:32:54;7.50;;;1.70;;
51800;SDS011;37855;53.204;6.568;2023-08-21T14:35:20;4.40;;;1.35;;
51800;SDS011;37855;53.204;6.568;2023-08-21T14:37:46;5.70;;;1.40;;
51800;SDS011;37855;53.204;6.568;2023-08-21T14:40:12;5.35;;;1.15;;
51800;SDS011;37855;53.204;6.568;2023-08-21T14:42:38;4.63;;;1.10;;
51800;SDS011;37855;53.204;6.568;2023-08-21T14:45:04;5.23;;;0.90;;
51800;SDS011;37855;53.204;6.568;2023-08-21T14:47:30;4.55;;;1.13;;
51800;SDS011;37855;53.204;6.568;2023-08-21T14:49:56;6.88;;;1.17;;
51800;SDS011;37855;53.204;6.568;2023-08-21T14:52:22;4.70;;;1.10;;
51800;SDS011;37855;53.204;6.568;2023-08-21T14:54:51;4.30;;;1.00;;
51800;SDS011;37855;53.204;6.568;2023-08-21T14:57:17;13.48;;;1.42;;